East Orange, NJ (07018)

10:18 PM EDT on August 31, 2016 (GMT -0400)
Brick Church | | Change Station

Elev 203 ft 40.76 °N, 74.22 °W | Updated 9 minutes ago

Overcast
Overcast
79.5 °F
Feels Like 82 °F
N
0.0
Wind Variable Wind from ENE

Today
High -- | Low -- °F
--% Chance of Precip.
Yesterday
High -- | Low -- °F
Precip. -- in
Pressure 29.88 in
Visibility 10.0 miles
Clouds Few 6000 ft
Overcast 14000 ft
Heat Index 82 °F
Dew Point 68 °F
Humidity 69%
Rainfall 0.00 in
Snow Depth Not available.
6:23 AM 7:29 PM
Waning Crescent, 0% visible
METAR KEWR 010151Z 19008KT 10SM FEW060 OVC140 27/19 A2988 RMK AO2 SLP118 T02670194
Pressure 29.88 in
Visibility 10.0 miles
Clouds Few 6000 ft
Overcast 14000 ft
Heat Index 82 °F
Dew Point 68 °F
Humidity 69%
Rainfall 0.00 in
Snow Depth Not available.
6:23 AM 7:29 PM
Waning Crescent, 0% visible
METAR KEWR 010151Z 19008KT 10SM FEW060 OVC140 27/19 A2988 RMK AO2 SLP118 T02670194

10-Day Weather Forecast

Almanac

Astronomy

Aug. 31, 2016 Rise Set
Actual Time
Civil Twilight
Nautical Twilight
Astronomical Twilight
Moon
Length of Visible Light
Length of Day
Tomorrow will be .
, % of the Moon is Illuminated

Today's Extremes

State Highs State Lows

Community

WunderPhotos

Upload Photos

1,936,273 photos uploaded!

WunderBlog® & News

Nearby

Air Quality

  Air Quality AQ Index Pollutant
Not available.

Snow Depth

Station Depth Elevation

Earthquake Activity

City Distance Mag. Time & Date
Minimum magnitude displayed is 2.5.

Coastal Water Temperatures

Place Temperature

Stations

Nearby Weather Stations

Station Location Temp. Windchill Dew Point Humidity Wind Precip. Elev Updated Type
                   

Watches & Warnings

There are currently no watches in effect.